Current | Forecast
Updated: 2:30 PM JST on August 23, 2017
Observed at Naha City, Japan
Temperature 91°F
Humidity 63%
Dew Point 77°F
Wind SE at 16 mph
Pressure 29.86 in (Steady)
Conditions Scattered Clouds
Visibility 6.2 miles
UV 10 out of 16
Clouds (FEW) : 2500 ft
Scattered Clouds (SCT) : 3000 ft
Yesterday's Maximum 91°F
Yesterday's Minimum 81°F approx.
Yesterday's Cooling Degree Days 21 approx.
Sunrise6:06 AM JST
Sunset6:59 PM JST
Moon Rise7:17 AM JST
Moon Set8:08 PM JST
Moon PhaseMoon Phase
Waxing Crescent
Raw METARMETAR ROAH 230530Z 14014KT 110V170 9999 FEW025 SCT030 33/25 Q1011 RMK 2CU025 3CU030 A2987


Monday
. High: 78° F.
Tuesday
. High: 77° F.
Wednesday
. High: 77° F.
Thursday
. High: 78° F.
Friday
. High: 78° F.
Saturday
. High: 78° F.
Sunday
. High: 80° F.
Monday
. High: 78° F.

Units: English | Metric

Find the Weather for any City, State or Zipcode, or Country:

U.S. State List | Severe Weather | Tropical Storms | Ski Conditions
United States | Canada | Central America | South America | Asia | Europe | Australia | Africa | Islands

Weather Underground

© Copyright 2017
The Weather Company, LLC